LIMW Airport Information

Runway Information
Runway 09 Length 4088 ft width 98 ft
Elevation 1790 ft Threshold 213 ft Heading 85
Runway 27 Length 4088 ft Width 98 ft
Elevation 1773 ft Threshold 115 ft Heading 265
Airport Frequencies
Type AFIS Name INFO Frequency 119.95 MHZ
Airport Navaids
Airport Weather Information & NOTAM
ADDS - METARS form results

(0904 UTC 24 July 2021)
Data provider http://aviationweather.gov/metar/data/
 
METAR text: LIMW 240820Z AUTO VRB01KT 9999 FEW051 24/18 Q1014
Conditions at: LIMW (AOSTA ARPT , IT) observed 0820 UTC 24 July 2021
Temperature: 24.0°C (75°F)
Dewpoint: 18.0°C (64°F) [RH = 69%]
Pressure (altimeter): 29.94 inches Hg (1014.0 mb)
Winds: variable direction winds at 1 MPH (1 knots; 0.5 m/s)
Visibility: 6 or more miles (10+ km)
Ceiling: at least 12,000 feet AGL
Clouds: few clouds at 5100 feet AGL
Weather: no significant weather observed at this time